createdAt,value
2018-11-03T00:02:07.042Z,99.90
2018-11-03T00:04:42.666Z,99.90
2018-11-03T00:07:18.152Z,99.90
2018-11-03T00:09:53.397Z,99.90
2018-11-03T00:12:28.954Z,99.90
2018-11-03T00:15:04.578Z,99.90
2018-11-03T00:17:40.315Z,99.90
2018-11-03T00:20:15.924Z,99.90
2018-11-03T00:22:51.231Z,99.90
2018-11-03T00:25:26.693Z,99.90
2018-11-03T00:28:01.907Z,99.90
2018-11-03T00:30:38.116Z,99.90
2018-11-03T00:33:13.809Z,99.90
2018-11-03T00:35:49.407Z,99.90
2018-11-03T00:38:24.704Z,99.90
2018-11-03T00:41:00.226Z,99.90
2018-11-03T00:43:35.744Z,99.90
2018-11-03T00:46:11.156Z,99.90
2018-11-03T00:48:46.718Z,99.90
2018-11-03T00:53:57.043Z,99.90
2018-11-03T00:56:32.754Z,99.90
2018-11-03T00:59:08.222Z,99.90
2018-11-03T01:01:43.516Z,99.90
2018-11-03T01:04:19.034Z,99.90
2018-11-03T01:06:54.413Z,99.90
2018-11-03T01:09:29.844Z,99.90
2018-11-03T01:12:05.444Z,99.90
2018-11-03T01:14:40.997Z,99.90
2018-11-03T01:17:16.344Z,99.90
2018-11-03T01:19:51.883Z,99.90
2018-11-03T01:22:27.454Z,99.90
2018-11-03T01:25:03.301Z,99.90
2018-11-03T01:27:38.855Z,99.90
2018-11-03T01:30:15.672Z,99.90
2018-11-03T01:32:50.976Z,99.90
2018-11-03T01:35:26.210Z,99.90
2018-11-03T01:38:01.641Z,99.90
2018-11-03T01:40:36.913Z,99.90
2018-11-03T01:43:12.417Z,99.90
2018-11-03T01:45:47.971Z,99.90
2018-11-03T01:48:23.515Z,99.90
2018-11-03T01:50:59.142Z,99.90
2018-11-03T01:53:34.794Z,99.90
2018-11-03T01:56:10.604Z,99.90
2018-11-03T01:58:46.406Z,99.90
2018-11-03T02:01:21.832Z,99.90
2018-11-03T02:03:57.195Z,99.90
2018-11-03T02:06:32.541Z,99.90
2018-11-03T02:09:09.256Z,99.90
2018-11-03T02:11:44.613Z,99.90
2018-11-03T02:14:19.947Z,99.90
2018-11-03T02:16:55.730Z,99.90
2018-11-03T02:19:31.706Z,99.90
2018-11-03T02:22:07.132Z,99.90
2018-11-03T02:24:42.766Z,99.90
2018-11-03T02:27:18.155Z,99.90
2018-11-03T02:29:53.553Z,99.90
2018-11-03T02:32:28.828Z,99.90
2018-11-03T02:35:04.447Z,99.90
2018-11-03T02:37:40.362Z,99.90
2018-11-03T02:40:15.747Z,99.90
2018-11-03T02:42:51.382Z,99.90
2018-11-03T02:45:26.924Z,99.90
2018-11-03T02:48:02.490Z,99.90
2018-11-03T02:50:38.065Z,99.90
2018-11-03T02:53:13.612Z,99.90
2018-11-03T02:55:49.255Z,99.90
2018-11-03T02:58:24.844Z,99.90
2018-11-03T03:01:00.524Z,99.90
2018-11-03T03:03:35.997Z,99.90
2018-11-03T03:06:11.142Z,99.90
2018-11-03T03:08:46.732Z,99.90
2018-11-03T03:11:22.355Z,99.90
2018-11-03T03:13:57.954Z,99.90
2018-11-03T03:16:33.614Z,99.90
2018-11-03T03:19:08.842Z,99.90
2018-11-03T03:21:44.325Z,99.90
2018-11-03T03:24:19.715Z,99.90
2018-11-03T03:26:55.324Z,99.90
2018-11-03T03:29:30.679Z,99.90
2018-11-03T03:32:06.206Z,99.90
2018-11-03T03:34:41.722Z,99.90
2018-11-03T03:37:17.274Z,99.90
2018-11-03T03:39:52.747Z,99.90
2018-11-03T03:42:28.362Z,99.90
2018-11-03T03:45:03.793Z,99.90
2018-11-03T03:47:39.542Z,99.90
2018-11-03T03:50:15.072Z,99.90
2018-11-03T03:52:50.637Z,99.90
2018-11-03T03:55:25.994Z,99.90
2018-11-03T03:58:01.820Z,99.90
2018-11-03T04:00:37.437Z,99.90
2018-11-03T04:03:12.834Z,99.90
2018-11-03T04:05:48.374Z,99.90
2018-11-03T04:08:23.968Z,99.90
2018-11-03T04:10:59.241Z,99.90
2018-11-03T04:13:34.949Z,99.90
2018-11-03T04:16:10.541Z,99.90
2018-11-03T04:18:46.425Z,99.90
2018-11-03T04:21:27.574Z,99.90
2018-11-03T04:24:03.244Z,99.90
2018-11-03T04:26:38.877Z,99.90
2018-11-03T04:29:14.474Z,99.90
2018-11-03T04:31:49.622Z,99.90
2018-11-03T04:34:25.226Z,99.90
2018-11-03T04:37:00.546Z,99.90
2018-11-03T04:39:35.726Z,99.90
2018-11-03T04:42:11.058Z,99.90
2018-11-03T04:44:46.662Z,99.90
2018-11-03T04:47:22.038Z,99.90
2018-11-03T04:49:57.375Z,99.90
2018-11-03T04:52:36.064Z,99.90
2018-11-03T04:55:11.635Z,99.90
2018-11-03T04:57:47.165Z,99.90
2018-11-03T05:00:22.858Z,99.90
2018-11-03T05:02:58.474Z,99.90
2018-11-03T05:05:33.970Z,99.90
2018-11-03T05:08:09.452Z,99.90
2018-11-03T05:10:44.901Z,99.90
2018-11-03T05:13:20.266Z,99.90
2018-11-03T05:15:55.541Z,99.90
2018-11-03T05:18:30.985Z,99.90
2018-11-03T05:21:06.587Z,99.90
2018-11-03T05:23:42.187Z,99.90
2018-11-03T05:26:17.863Z,99.90
2018-11-03T05:28:53.402Z,99.90
2018-11-03T05:31:29.032Z,99.90
2018-11-03T05:34:04.616Z,99.90
2018-11-03T05:36:39.959Z,99.90
2018-11-03T05:39:15.513Z,99.90
2018-11-03T05:41:50.893Z,99.90
2018-11-03T05:44:26.369Z,99.90
2018-11-03T05:47:02.148Z,99.90
2018-11-03T05:49:37.673Z,99.90
2018-11-03T05:52:13.225Z,99.90
2018-11-03T05:54:48.763Z,99.90
2018-11-03T05:57:24.211Z,99.90
2018-11-03T05:59:59.835Z,99.90
2018-11-03T06:02:35.280Z,99.90
2018-11-03T06:05:10.584Z,99.90
2018-11-03T06:07:46.227Z,99.90
2018-11-03T06:10:21.803Z,99.90
2018-11-03T06:12:57.492Z,99.90
2018-11-03T06:15:33.107Z,99.90
2018-11-03T06:18:08.555Z,99.90
2018-11-03T06:20:43.903Z,99.90
2018-11-03T06:23:19.240Z,99.90
2018-11-03T06:25:54.834Z,99.90
2018-11-03T06:28:30.353Z,99.90
2018-11-03T06:31:05.894Z,99.90
2018-11-03T06:33:41.284Z,99.90
2018-11-03T06:36:17.135Z,99.90
2018-11-03T06:38:52.554Z,99.90
2018-11-03T06:41:28.580Z,99.90
2018-11-03T06:44:03.945Z,99.90
2018-11-03T06:46:39.476Z,99.90
2018-11-03T06:49:19.991Z,99.90
2018-11-03T06:51:55.444Z,99.90
2018-11-03T06:54:31.135Z,99.90
2018-11-03T06:57:06.715Z,99.90
2018-11-03T06:59:42.255Z,99.90
2018-11-03T07:02:17.792Z,99.90
2018-11-03T07:04:53.285Z,99.90
2018-11-03T07:07:28.921Z,99.90
2018-11-03T07:10:04.584Z,99.90
2018-11-03T07:12:40.617Z,99.90
2018-11-03T07:15:15.835Z,99.90
2018-11-03T07:17:51.260Z,99.90
2018-11-03T07:20:26.820Z,99.90
2018-11-03T07:23:02.491Z,99.90
2018-11-03T07:25:38.244Z,99.90
2018-11-03T07:28:13.984Z,99.90
2018-11-03T07:30:50.693Z,99.90
2018-11-03T07:33:26.150Z,99.90
2018-11-03T07:36:01.656Z,99.90
2018-11-03T07:38:37.187Z,99.90
2018-11-03T07:41:12.785Z,99.90
2018-11-03T07:43:48.147Z,99.90
2018-11-03T07:46:24.313Z,99.90
2018-11-03T07:49:00.061Z,99.90
2018-11-03T07:51:35.491Z,99.90
2018-11-03T07:54:10.834Z,99.90
2018-11-03T07:56:46.093Z,99.90
2018-11-03T07:59:21.635Z,99.90
2018-11-03T08:01:58.989Z,99.90
2018-11-03T08:04:36.350Z,99.90
2018-11-03T08:07:12.672Z,99.90
2018-11-03T08:09:48.552Z,99.90
2018-11-03T08:12:24.343Z,99.90
2018-11-03T08:14:59.699Z,99.90
2018-11-03T08:17:35.604Z,99.90
2018-11-03T08:20:11.750Z,99.90
2018-11-03T08:22:47.283Z,99.90
2018-11-03T08:25:22.626Z,99.90
2018-11-03T08:27:58.404Z,99.90
2018-11-03T08:30:34.095Z,99.90
2018-11-03T08:33:09.593Z,99.90
2018-11-03T08:35:45.132Z,99.90
2018-11-03T08:38:20.653Z,99.90
2018-11-03T08:40:55.934Z,99.90
2018-11-03T08:43:31.362Z,99.90
2018-11-03T08:46:07.680Z,99.90
2018-11-03T08:48:43.261Z,99.90
2018-11-03T08:51:18.617Z,99.90
2018-11-03T08:53:54.210Z,99.90
2018-11-03T08:56:29.713Z,99.90
2018-11-03T08:59:05.133Z,99.90
2018-11-03T09:01:40.813Z,99.90
2018-11-03T09:04:16.365Z,99.90
2018-11-03T09:06:51.819Z,99.90
2018-11-03T09:09:27.314Z,99.90
2018-11-03T09:12:02.743Z,99.90
2018-11-03T09:14:38.154Z,99.90
2018-11-03T09:17:13.573Z,99.90
2018-11-03T09:19:49.055Z,99.90
2018-11-03T09:22:24.525Z,99.90
2018-11-03T09:24:59.850Z,99.90
2018-11-03T09:27:35.482Z,99.90
2018-11-03T09:30:13.165Z,99.90
2018-11-03T09:32:48.764Z,99.90
2018-11-03T09:35:24.201Z,99.90
2018-11-03T09:37:59.793Z,99.90
2018-11-03T09:40:35.305Z,99.90
2018-11-03T09:43:10.915Z,99.90
2018-11-03T09:45:46.060Z,99.90
2018-11-03T09:48:21.479Z,99.90
2018-11-03T09:50:57.155Z,99.90
2018-11-03T09:53:32.613Z,99.90
2018-11-03T09:56:08.070Z,99.90
2018-11-03T09:58:43.524Z,99.90
2018-11-03T10:01:18.955Z,99.90
2018-11-03T10:03:54.284Z,99.90
2018-11-03T10:06:29.576Z,99.90
2018-11-03T10:09:05.823Z,99.90
2018-11-03T10:11:41.081Z,99.90
2018-11-03T10:14:16.514Z,99.90
2018-11-03T10:16:52.130Z,99.90
2018-11-03T10:19:27.674Z,99.90
2018-11-03T10:22:03.150Z,99.90
2018-11-03T10:24:38.674Z,99.90
2018-11-03T10:27:14.037Z,99.90
2018-11-03T10:29:49.464Z,99.90
2018-11-03T10:32:24.882Z,99.90
2018-11-03T10:35:00.451Z,99.90
2018-11-03T10:37:36.269Z,99.90
2018-11-03T10:40:13.651Z,99.90
2018-11-03T10:42:49.326Z,99.90
2018-11-03T10:45:24.902Z,1.00
2018-11-03T10:48:00.354Z,63.00
2018-11-03T10:50:36.001Z,1.00
2018-11-03T10:53:11.488Z,99.90
2018-11-03T10:55:46.732Z,20.40
2018-11-03T10:58:22.079Z,99.90
2018-11-03T11:01:02.738Z,99.90
2018-11-03T11:03:43.139Z,11.20
2018-11-03T11:06:23.401Z,1.00
2018-11-03T11:10:07.844Z,1.00
2018-11-03T11:12:45.884Z,99.90
2018-11-03T11:15:21.498Z,1.00
2018-11-03T11:17:57.524Z,99.90
2018-11-03T11:20:32.990Z,99.90
2018-11-03T11:23:08.320Z,1.00
2018-11-03T11:25:43.759Z,1.00
2018-11-03T11:28:19.347Z,1.00
2018-11-03T11:30:54.794Z,1.00
2018-11-03T11:33:30.224Z,1.00
2018-11-03T11:36:05.756Z,99.90
2018-11-03T11:38:41.143Z,99.90
2018-11-03T11:41:16.336Z,99.90
2018-11-03T11:43:51.752Z,99.90
2018-11-03T11:46:27.138Z,99.90
2018-11-03T11:49:02.476Z,99.90
2018-11-03T11:51:37.821Z,25.60
2018-11-03T11:54:13.264Z,1.00
2018-11-03T11:56:48.875Z,1.00
2018-11-03T11:59:24.604Z,1.00
2018-11-03T12:02:00.070Z,1.00
2018-11-03T12:04:35.543Z,1.00
2018-11-03T12:07:10.864Z,1.00
2018-11-03T12:09:46.282Z,1.00
2018-11-03T12:12:21.631Z,1.00
2018-11-03T12:14:57.022Z,1.00
2018-11-03T12:17:32.487Z,1.00
2018-11-03T12:20:08.158Z,1.00
2018-11-03T12:22:43.335Z,1.00
2018-11-03T12:25:19.034Z,1.00
2018-11-03T12:27:54.327Z,1.00
2018-11-03T12:30:29.655Z,1.00
2018-11-03T12:33:05.517Z,1.00
2018-11-03T12:35:41.104Z,1.00
2018-11-03T12:38:16.346Z,1.00
2018-11-03T12:40:51.746Z,1.00
2018-11-03T12:43:26.886Z,1.00
2018-11-03T12:46:02.611Z,1.00
2018-11-03T12:48:38.141Z,1.00
2018-11-03T12:51:13.674Z,1.00
2018-11-03T12:53:48.865Z,1.00
2018-11-03T12:56:24.475Z,1.00
2018-11-03T12:58:59.893Z,1.00
2018-11-03T13:01:35.430Z,1.00
2018-11-03T13:04:10.970Z,1.00
2018-11-03T13:06:46.751Z,1.00
2018-11-03T13:09:22.353Z,1.00
2018-11-03T13:11:57.981Z,1.00
2018-11-03T13:14:33.323Z,1.00
2018-11-03T13:17:08.555Z,1.00
2018-11-03T13:19:44.274Z,1.00
2018-11-03T13:22:19.844Z,1.00
2018-11-03T13:24:55.344Z,1.00
2018-11-03T13:27:30.847Z,1.00
2018-11-03T13:30:07.154Z,1.00
2018-11-03T13:32:42.563Z,1.00
2018-11-03T13:35:18.044Z,1.00
2018-11-03T13:37:53.493Z,1.00
2018-11-03T13:40:29.071Z,1.00
2018-11-03T13:43:05.084Z,1.00
2018-11-03T13:45:40.423Z,1.00
2018-11-03T13:48:16.168Z,1.00
2018-11-03T13:50:51.651Z,1.00
2018-11-03T13:53:27.356Z,1.00
2018-11-03T13:56:03.114Z,1.00
2018-11-03T13:58:38.529Z,1.00
2018-11-03T14:01:14.064Z,1.00
2018-11-03T14:03:49.795Z,1.00
2018-11-03T14:06:25.174Z,1.00
2018-11-03T14:09:00.555Z,1.00
2018-11-03T14:11:35.732Z,1.00
2018-11-03T14:14:11.312Z,1.00
2018-11-03T14:16:47.386Z,1.00
2018-11-03T14:19:22.822Z,1.00
2018-11-03T14:21:58.233Z,1.00
2018-11-03T14:24:33.804Z,1.00
2018-11-03T14:27:09.904Z,1.00
2018-11-03T14:29:45.897Z,1.00
2018-11-03T14:32:21.332Z,1.00
2018-11-03T14:34:56.895Z,1.00
2018-11-03T14:37:32.841Z,1.00
2018-11-03T14:40:10.475Z,1.00
2018-11-03T14:42:46.442Z,1.00
2018-11-03T14:45:21.915Z,1.00
2018-11-03T14:47:57.562Z,1.00
2018-11-03T14:50:33.894Z,1.00
2018-11-03T14:53:09.446Z,1.00
2018-11-03T14:55:45.172Z,1.00
2018-11-03T14:58:21.555Z,1.00
2018-11-03T15:00:57.423Z,1.00
2018-11-03T15:03:34.187Z,1.00
2018-11-03T15:06:09.601Z,1.00
2018-11-03T15:08:44.811Z,1.00
2018-11-03T15:11:20.401Z,1.00
2018-11-03T15:13:56.234Z,1.00
2018-11-03T15:16:32.360Z,1.00
2018-11-03T15:19:08.253Z,1.00
2018-11-03T15:21:44.494Z,1.00
2018-11-03T15:24:20.375Z,1.00
2018-11-03T15:26:55.752Z,1.00
2018-11-03T15:29:31.190Z,1.00
2018-11-03T15:32:06.635Z,1.00
2018-11-03T15:34:41.960Z,1.00
2018-11-03T15:37:17.423Z,1.00
2018-11-03T15:39:53.059Z,27.00
2018-11-03T15:42:29.906Z,74.00
2018-11-03T15:45:06.921Z,99.90
2018-11-03T15:47:43.562Z,99.90
2018-11-03T15:50:19.046Z,99.90
2018-11-03T15:52:54.675Z,99.90
2018-11-03T15:55:30.286Z,1.00
2018-11-03T15:58:05.901Z,1.00
2018-11-03T16:00:42.134Z,1.00
2018-11-03T16:03:17.614Z,1.00
2018-11-03T16:05:53.160Z,11.60
2018-11-03T16:08:28.361Z,99.90
2018-11-03T16:11:04.662Z,99.90
2018-11-03T16:13:40.444Z,99.90
2018-11-03T16:16:16.240Z,1.00
2018-11-03T16:18:52.263Z,1.00
2018-11-03T16:21:28.094Z,1.00
2018-11-03T16:24:03.744Z,26.00
2018-11-03T16:26:39.628Z,99.90
2018-11-03T16:29:15.246Z,99.90
2018-11-03T16:31:51.045Z,99.90
2018-11-03T16:34:26.592Z,99.90
2018-11-03T16:37:02.125Z,1.00
2018-11-03T16:39:37.992Z,55.10
2018-11-03T16:42:13.454Z,99.90
2018-11-03T16:44:49.006Z,99.90
2018-11-03T16:47:24.769Z,99.90
2018-11-03T16:50:00.620Z,1.00
2018-11-03T16:52:36.098Z,90.70
2018-11-03T16:55:12.556Z,99.90
2018-11-03T16:57:48.043Z,99.90
2018-11-03T17:00:23.506Z,99.90
2018-11-03T17:02:58.895Z,1.00
2018-11-03T17:05:34.307Z,1.00
2018-11-03T17:08:09.997Z,1.00
2018-11-03T17:10:45.173Z,99.90
2018-11-03T17:13:20.521Z,99.90
2018-11-03T17:15:55.852Z,1.00
2018-11-03T17:18:31.256Z,14.50
2018-11-03T17:21:06.675Z,83.20
2018-11-03T17:23:42.135Z,99.90
2018-11-03T17:26:17.460Z,99.90
2018-11-03T17:28:52.904Z,99.90
2018-11-03T17:31:28.533Z,99.90
2018-11-03T17:34:04.309Z,1.00
2018-11-03T17:36:39.953Z,1.00
2018-11-03T17:39:15.257Z,10.70
2018-11-03T17:41:51.115Z,99.90
2018-11-03T17:44:26.440Z,99.90
2018-11-03T17:47:01.815Z,1.00
2018-11-03T17:49:37.112Z,1.00
2018-11-03T17:52:12.543Z,99.90
2018-11-03T17:54:47.983Z,99.90
2018-11-03T17:57:23.412Z,99.90
2018-11-03T17:59:58.990Z,99.90
2018-11-03T18:02:34.534Z,99.90
2018-11-03T18:05:10.172Z,99.90
2018-11-03T18:07:45.743Z,99.90
2018-11-03T18:10:21.161Z,1.00
2018-11-03T18:12:56.613Z,1.00
2018-11-03T18:15:31.937Z,1.00
2018-11-03T18:18:07.588Z,1.00
2018-11-03T18:20:42.835Z,18.60
2018-11-03T18:23:18.547Z,60.00
2018-11-03T18:25:53.993Z,99.90
2018-11-03T18:28:29.373Z,99.90
2018-11-03T18:31:05.137Z,99.90
2018-11-03T18:33:41.146Z,99.90
2018-11-03T18:36:16.592Z,99.90
2018-11-03T18:38:52.072Z,99.90
2018-11-03T18:41:27.739Z,99.90
2018-11-03T18:44:03.066Z,99.90
2018-11-03T18:46:38.442Z,99.90
2018-11-03T18:49:13.863Z,99.90
2018-11-03T18:51:49.359Z,99.90
2018-11-03T18:54:24.647Z,99.90
2018-11-03T18:57:00.204Z,99.90
2018-11-03T18:59:35.936Z,99.90
2018-11-03T19:02:12.079Z,99.90
2018-11-03T19:04:47.408Z,99.90
2018-11-03T19:07:22.933Z,99.90
2018-11-03T19:09:58.546Z,99.90
2018-11-03T19:12:34.024Z,99.90
2018-11-03T19:15:10.625Z,99.90
2018-11-03T19:17:46.064Z,99.90
2018-11-03T19:20:21.425Z,99.90
2018-11-03T19:22:57.235Z,99.90
2018-11-03T19:25:32.932Z,99.90
2018-11-03T19:28:08.648Z,99.90
2018-11-03T19:30:44.135Z,99.90
2018-11-03T19:33:19.811Z,99.90
2018-11-03T19:35:55.175Z,99.90
2018-11-03T19:38:30.827Z,99.90
2018-11-03T19:41:06.458Z,99.90
2018-11-03T19:43:41.981Z,99.90
2018-11-03T19:46:17.561Z,99.90
2018-11-03T19:48:53.193Z,99.90
2018-11-03T19:51:28.568Z,99.90
2018-11-03T19:54:04.345Z,99.90
2018-11-03T19:56:39.846Z,99.90
2018-11-03T19:59:15.365Z,99.90
2018-11-03T20:01:50.848Z,99.90
2018-11-03T20:04:26.564Z,99.90
2018-11-03T20:07:02.127Z,99.90
2018-11-03T20:09:37.349Z,99.90
2018-11-03T20:12:12.715Z,99.90
2018-11-03T20:17:38.428Z,99.90
2018-11-03T20:20:14.649Z,99.90
2018-11-03T20:22:50.642Z,99.90
2018-11-03T20:25:26.361Z,99.90
2018-11-03T20:28:01.773Z,99.90
2018-11-03T20:30:37.257Z,99.90
2018-11-03T20:33:12.585Z,99.90
2018-11-03T20:35:48.043Z,99.90
2018-11-03T20:38:23.379Z,99.90
2018-11-03T20:40:59.040Z,99.90
2018-11-03T20:43:34.572Z,99.90
2018-11-03T20:46:10.232Z,99.90
2018-11-03T20:48:45.606Z,99.90
2018-11-03T20:51:21.155Z,99.90
2018-11-03T20:53:56.825Z,99.90
2018-11-03T20:56:32.365Z,99.90
2018-11-03T20:59:07.975Z,99.90
2018-11-03T21:01:43.526Z,99.90
2018-11-03T21:04:19.056Z,99.90
2018-11-03T21:06:54.665Z,99.90
2018-11-03T21:09:30.035Z,99.90
2018-11-03T21:12:05.683Z,99.90
2018-11-03T21:14:41.455Z,99.90
2018-11-03T21:17:16.824Z,99.90
2018-11-03T21:19:52.098Z,99.90
2018-11-03T21:22:27.730Z,99.90
2018-11-03T21:25:03.177Z,99.90
2018-11-03T21:27:38.529Z,99.90
2018-11-03T21:30:14.081Z,99.90
2018-11-03T21:32:49.450Z,99.90
2018-11-03T21:35:24.885Z,99.90
2018-11-03T21:38:00.346Z,99.90
2018-11-03T21:40:35.842Z,99.90
2018-11-03T21:43:11.191Z,99.90
2018-11-03T21:45:46.454Z,99.90
2018-11-03T21:48:21.956Z,99.90
2018-11-03T21:50:57.354Z,99.90
2018-11-03T21:53:32.747Z,99.90
2018-11-03T21:56:08.483Z,99.90
2018-11-03T21:58:44.044Z,99.90
2018-11-03T22:01:19.616Z,99.90
2018-11-03T22:03:55.349Z,99.90
2018-11-03T22:06:30.954Z,99.90
2018-11-03T22:09:09.028Z,99.90
2018-11-03T22:11:44.462Z,99.90
2018-11-03T22:14:19.897Z,99.90
2018-11-03T22:16:56.142Z,99.90
2018-11-03T22:19:31.474Z,99.90
2018-11-03T22:22:06.904Z,99.90
2018-11-03T22:24:42.394Z,99.90
2018-11-03T22:27:17.823Z,99.90
2018-11-03T22:29:53.386Z,99.90
2018-11-03T22:32:29.074Z,99.90
2018-11-03T22:35:04.693Z,99.90
2018-11-03T22:37:40.259Z,99.90
2018-11-03T22:40:15.645Z,99.90
2018-11-03T22:42:51.078Z,99.90
2018-11-03T22:45:26.596Z,99.90
2018-11-03T22:48:02.101Z,99.90
2018-11-03T22:50:37.422Z,99.90
2018-11-03T22:53:12.829Z,99.90
2018-11-03T22:55:48.239Z,99.90
2018-11-03T22:58:23.637Z,99.90
2018-11-03T23:00:59.100Z,99.90
2018-11-03T23:03:34.461Z,99.90
2018-11-03T23:06:09.762Z,99.90
2018-11-03T23:08:45.344Z,99.90
2018-11-03T23:11:20.942Z,99.90
2018-11-03T23:13:56.213Z,99.90
2018-11-03T23:16:31.494Z,99.90
2018-11-03T23:19:06.897Z,99.90
2018-11-03T23:21:42.371Z,99.90
2018-11-03T23:24:17.814Z,99.90
2018-11-03T23:26:53.337Z,99.90
2018-11-03T23:29:28.880Z,99.90
2018-11-03T23:32:04.356Z,99.90
2018-11-03T23:34:39.662Z,99.90
2018-11-03T23:37:15.271Z,99.90
2018-11-03T23:39:50.721Z,99.90
2018-11-03T23:42:26.165Z,99.90
2018-11-03T23:45:01.621Z,99.90
2018-11-03T23:47:37.071Z,99.90
2018-11-03T23:50:13.526Z,99.90
2018-11-03T23:52:49.141Z,99.90
2018-11-03T23:55:24.974Z,99.90
2018-11-03T23:58:00.556Z,99.90
